Portada
METAR-TAF:

METAR-TAF

Aeroports :

Vladikavkaz, Rússia

latitud: 43-12-18N, longitud: 044-36-24E, altitud: 510 m

Observació

L'informe es va fer fa 17 minuts, a les 00:30 UTC
Vent 8 kt del Est
Temperatura -4°C
Humitat 93%
Pressió 1025 hPa
Visibilitat 10 km o més

METAR: URMO 020030Z AUTO 08004MPS 9999 // NCD M04/M05 Q1025 RMK QFE725/0967

Hora: 03:47 (00:47 UTC)

Pronòstic

L'informe es va fer fa 10 hores i 47 minuts, a les 14:00 UTC
Pronòstic vàlid del 01 a les 15 UTC al 01 a les 24 UTC
Vent 6 kt del Nord-Oest amb ràfegues de 16 kt
Visibilitat 10 km o més
Cel ennuvolat a una alçada de 2000 ft

TAF: URMO 011400Z 0115/0124 32003G08MPS 9999 BKN020

Observacions i pronòstics meteorològics de més de 4000 aeroports (METAR i TAF).

Les estacions disponibles són els punts grocs i vermells al mapa.

Posi el ratolí al punt desitjat per veure el nom de l'estació.

Feu clic per veure les observacions i els pronòstics meteorològics.

Per canviar el mapa: feu clic els botons verds amb una creu de color negre per apropar; al botó verd amb un guió per allunyar la imatge; o en les fletxes verdes per a mapes adjacents.


METAR-TAF: